sensor_id;sensor_type;location;lat;lon;timestamp;P1;durP1;ratioP1;P2;durP2;ratioP2
2728;SDS011;1372;47.956;7.830;2023-05-10T00:00:10;1.17;;;0.70;;
2728;SDS011;1372;47.956;7.830;2023-05-10T00:02:40;1.10;;;0.97;;
2728;SDS011;1372;47.956;7.830;2023-05-10T00:05:08;1.40;;;0.70;;
2728;SDS011;1372;47.956;7.830;2023-05-10T00:07:37;2.20;;;1.00;;
2728;SDS011;1372;47.956;7.830;2023-05-10T00:10:07;0.93;;;0.70;;
2728;SDS011;1372;47.956;7.830;2023-05-10T00:12:37;0.70;;;0.70;;
2728;SDS011;1372;47.956;7.830;2023-05-10T00:15:06;0.53;;;0.50;;
2728;SDS011;1372;47.956;7.830;2023-05-10T00:17:40;0.83;;;0.80;;
2728;SDS011;1372;47.956;7.830;2023-05-10T00:20:09;0.50;;;0.50;;
2728;SDS011;1372;47.956;7.830;2023-05-10T00:22:39;1.00;;;0.57;;
2728;SDS011;1372;47.956;7.830;2023-05-10T00:25:08;1.40;;;0.80;;
2728;SDS011;1372;47.956;7.830;2023-05-10T00:27:37;0.53;;;0.53;;
2728;SDS011;1372;47.956;7.830;2023-05-10T00:30:06;0.90;;;0.90;;
2728;SDS011;1372;47.956;7.830;2023-05-10T00:32:37;0.80;;;0.80;;
2728;SDS011;1372;47.956;7.830;2023-05-10T00:35:06;0.70;;;0.70;;
2728;SDS011;1372;47.956;7.830;2023-05-10T00:37:38;0.80;;;0.80;;
2728;SDS011;1372;47.956;7.830;2023-05-10T00:40:07;1.20;;;0.80;;
2728;SDS011;1372;47.956;7.830;2023-05-10T00:42:38;0.90;;;0.80;;
2728;SDS011;1372;47.956;7.830;2023-05-10T00:45:09;1.70;;;0.57;;
2728;SDS011;1372;47.956;7.830;2023-05-10T00:47:38;0.70;;;0.70;;
2728;SDS011;1372;47.956;7.830;2023-05-10T00:50:08;1.13;;;0.70;;
2728;SDS011;1372;47.956;7.830;2023-05-10T00:52:41;1.70;;;0.70;;
2728;SDS011;1372;47.956;7.830;2023-05-10T00:55:10;1.13;;;1.03;;
2728;SDS011;1372;47.956;7.830;2023-05-10T00:57:40;2.30;;;0.60;;
2728;SDS011;1372;47.956;7.830;2023-05-10T01:00:11;0.90;;;0.70;;
2728;SDS011;1372;47.956;7.830;2023-05-10T01:02:44;1.67;;;1.00;;
2728;SDS011;1372;47.956;7.830;2023-05-10T01:05:14;0.73;;;0.73;;
2728;SDS011;1372;47.956;7.830;2023-05-10T01:07:43;0.90;;;0.90;;
2728;SDS011;1372;47.956;7.830;2023-05-10T01:10:12;1.20;;;0.83;;
2728;SDS011;1372;47.956;7.830;2023-05-10T01:12:42;2.40;;;1.00;;
2728;SDS011;1372;47.956;7.830;2023-05-10T01:15:14;0.90;;;0.90;;
2728;SDS011;1372;47.956;7.830;2023-05-10T01:17:47;0.73;;;0.70;;
2728;SDS011;1372;47.956;7.830;2023-05-10T01:20:17;1.17;;;0.90;;
2728;SDS011;1372;47.956;7.830;2023-05-10T01:22:50;2.20;;;0.90;;
2728;SDS011;1372;47.956;7.830;2023-05-10T01:25:55;0.97;;;0.80;;
2728;SDS011;1372;47.956;7.830;2023-05-10T01:29:14;0.87;;;0.70;;
2728;SDS011;1372;47.956;7.830;2023-05-10T01:32:44;1.23;;;1.10;;
2728;SDS011;1372;47.956;7.830;2023-05-10T01:35:22;1.10;;;1.00;;
2728;SDS011;1372;47.956;7.830;2023-05-10T01:38:03;1.00;;;1.00;;
2728;SDS011;1372;47.956;7.830;2023-05-10T01:40:42;1.10;;;0.90;;
2728;SDS011;1372;47.956;7.830;2023-05-10T01:43:28;1.17;;;1.07;;
2728;SDS011;1372;47.956;7.830;2023-05-10T01:46:01;1.23;;;0.80;;
2728;SDS011;1372;47.956;7.830;2023-05-10T01:48:40;1.27;;;1.17;;
2728;SDS011;1372;47.956;7.830;2023-05-10T01:51:16;2.70;;;1.10;;
2728;SDS011;1372;47.956;7.830;2023-05-10T01:53:54;0.80;;;0.80;;
2728;SDS011;1372;47.956;7.830;2023-05-10T01:56:30;1.13;;;1.03;;
2728;SDS011;1372;47.956;7.830;2023-05-10T01:59:02;2.10;;;1.27;;
2728;SDS011;1372;47.956;7.830;2023-05-10T02:01:36;1.00;;;1.00;;
2728;SDS011;1372;47.956;7.830;2023-05-10T02:04:07;2.30;;;1.13;;
2728;SDS011;1372;47.956;7.830;2023-05-10T02:06:37;1.07;;;1.07;;
2728;SDS011;1372;47.956;7.830;2023-05-10T02:09:10;0.90;;;0.90;;
2728;SDS011;1372;47.956;7.830;2023-05-10T02:11:40;1.90;;;1.17;;
2728;SDS011;1372;47.956;7.830;2023-05-10T02:14:11;1.00;;;0.90;;
2728;SDS011;1372;47.956;7.830;2023-05-10T02:16:40;1.03;;;0.93;;
2728;SDS011;1372;47.956;7.830;2023-05-10T02:19:11;2.03;;;1.40;;
2728;SDS011;1372;47.956;7.830;2023-05-10T02:21:41;1.30;;;1.20;;
2728;SDS011;1372;47.956;7.830;2023-05-10T02:24:11;0.70;;;0.70;;
2728;SDS011;1372;47.956;7.830;2023-05-10T02:26:43;1.07;;;0.97;;
2728;SDS011;1372;47.956;7.830;2023-05-10T02:29:15;1.23;;;1.03;;
2728;SDS011;1372;47.956;7.830;2023-05-10T02:31:46;1.27;;;1.17;;
2728;SDS011;1372;47.956;7.830;2023-05-10T02:34:19;1.07;;;0.97;;
2728;SDS011;1372;47.956;7.830;2023-05-10T02:36:52;1.10;;;1.03;;
2728;SDS011;1372;47.956;7.830;2023-05-10T02:39:21;2.60;;;1.30;;
2728;SDS011;1372;47.956;7.830;2023-05-10T02:41:51;1.57;;;1.07;;
2728;SDS011;1372;47.956;7.830;2023-05-10T02:44:22;1.17;;;1.17;;
2728;SDS011;1372;47.956;7.830;2023-05-10T02:46:53;1.80;;;1.00;;
2728;SDS011;1372;47.956;7.830;2023-05-10T02:49:24;1.00;;;1.00;;
2728;SDS011;1372;47.956;7.830;2023-05-10T02:51:55;0.80;;;0.80;;
2728;SDS011;1372;47.956;7.830;2023-05-10T02:54:29;4.93;;;1.20;;
2728;SDS011;1372;47.956;7.830;2023-05-10T02:57:02;1.07;;;0.97;;
2728;SDS011;1372;47.956;7.830;2023-05-10T02:59:33;1.20;;;1.10;;
2728;SDS011;1372;47.956;7.830;2023-05-10T03:02:02;0.80;;;0.80;;
2728;SDS011;1372;47.956;7.830;2023-05-10T03:04:33;0.90;;;0.90;;
2728;SDS011;1372;47.956;7.830;2023-05-10T03:07:02;1.23;;;1.00;;
2728;SDS011;1372;47.956;7.830;2023-05-10T03:09:31;1.10;;;1.00;;
2728;SDS011;1372;47.956;7.830;2023-05-10T03:12:02;2.17;;;0.97;;
2728;SDS011;1372;47.956;7.830;2023-05-10T03:14:51;0.90;;;0.90;;
2728;SDS011;1372;47.956;7.830;2023-05-10T03:17:29;4.97;;;1.13;;
2728;SDS011;1372;47.956;7.830;2023-05-10T03:20:06;1.13;;;1.03;;
2728;SDS011;1372;47.956;7.830;2023-05-10T03:22:45;1.13;;;1.07;;
2728;SDS011;1372;47.956;7.830;2023-05-10T03:25:21;1.13;;;1.07;;
2728;SDS011;1372;47.956;7.830;2023-05-10T03:27:52;1.00;;;1.00;;
2728;SDS011;1372;47.956;7.830;2023-05-10T03:30:21;1.40;;;1.30;;
2728;SDS011;1372;47.956;7.830;2023-05-10T03:32:52;1.67;;;1.00;;
2728;SDS011;1372;47.956;7.830;2023-05-10T03:35:22;1.30;;;1.20;;
2728;SDS011;1372;47.956;7.830;2023-05-10T03:37:52;1.13;;;1.03;;
2728;SDS011;1372;47.956;7.830;2023-05-10T03:40:20;1.37;;;1.17;;
2728;SDS011;1372;47.956;7.830;2023-05-10T03:42:49;1.03;;;1.03;;
2728;SDS011;1372;47.956;7.830;2023-05-10T03:45:18;2.37;;;1.13;;
2728;SDS011;1372;47.956;7.830;2023-05-10T03:47:47;1.37;;;1.17;;
2728;SDS011;1372;47.956;7.830;2023-05-10T03:50:15;3.57;;;1.20;;
2728;SDS011;1372;47.956;7.830;2023-05-10T03:52:46;1.30;;;1.20;;
2728;SDS011;1372;47.956;7.830;2023-05-10T03:55:15;0.90;;;0.90;;
2728;SDS011;1372;47.956;7.830;2023-05-10T03:57:44;1.40;;;1.30;;
2728;SDS011;1372;47.956;7.830;2023-05-10T04:00:13;1.20;;;1.13;;
2728;SDS011;1372;47.956;7.830;2023-05-10T04:02:42;1.17;;;1.07;;
2728;SDS011;1372;47.956;7.830;2023-05-10T04:05:12;2.87;;;1.50;;
2728;SDS011;1372;47.956;7.830;2023-05-10T04:07:41;1.20;;;1.10;;
2728;SDS011;1372;47.956;7.830;2023-05-10T04:10:12;1.10;;;1.10;;
2728;SDS011;1372;47.956;7.830;2023-05-10T04:12:41;1.33;;;1.20;;
2728;SDS011;1372;47.956;7.830;2023-05-10T04:15:10;1.20;;;1.10;;
2728;SDS011;1372;47.956;7.830;2023-05-10T04:17:39;2.00;;;1.33;;
2728;SDS011;1372;47.956;7.830;2023-05-10T04:20:08;1.30;;;1.10;;
2728;SDS011;1372;47.956;7.830;2023-05-10T04:22:40;1.03;;;1.03;;
2728;SDS011;1372;47.956;7.830;2023-05-10T04:25:09;1.43;;;1.30;;
2728;SDS011;1372;47.956;7.830;2023-05-10T04:27:40;1.30;;;1.20;;
2728;SDS011;1372;47.956;7.830;2023-05-10T04:30:09;1.60;;;1.37;;
2728;SDS011;1372;47.956;7.830;2023-05-10T04:32:38;1.37;;;0.93;;
2728;SDS011;1372;47.956;7.830;2023-05-10T04:35:07;1.27;;;1.17;;
2728;SDS011;1372;47.956;7.830;2023-05-10T04:37:37;2.27;;;1.20;;
2728;SDS011;1372;47.956;7.830;2023-05-10T04:40:07;1.40;;;1.20;;
2728;SDS011;1372;47.956;7.830;2023-05-10T04:42:40;1.20;;;1.20;;
2728;SDS011;1372;47.956;7.830;2023-05-10T04:45:09;1.13;;;1.10;;
2728;SDS011;1372;47.956;7.830;2023-05-10T04:47:38;1.20;;;1.10;;
2728;SDS011;1372;47.956;7.830;2023-05-10T04:50:07;1.10;;;1.00;;
2728;SDS011;1372;47.956;7.830;2023-05-10T04:52:36;2.03;;;1.30;;
2728;SDS011;1372;47.956;7.830;2023-05-10T04:55:05;1.60;;;1.50;;
2728;SDS011;1372;47.956;7.830;2023-05-10T04:57:36;3.30;;;1.60;;
2728;SDS011;1372;47.956;7.830;2023-05-10T05:00:08;2.13;;;1.37;;
2728;SDS011;1372;47.956;7.830;2023-05-10T05:02:38;2.53;;;2.33;;
2728;SDS011;1372;47.956;7.830;2023-05-10T05:05:10;1.60;;;1.50;;
2728;SDS011;1372;47.956;7.830;2023-05-10T05:07:39;1.73;;;1.43;;
2728;SDS011;1372;47.956;7.830;2023-05-10T05:10:08;1.67;;;1.20;;
2728;SDS011;1372;47.956;7.830;2023-05-10T05:12:37;2.93;;;1.40;;
2728;SDS011;1372;47.956;7.830;2023-05-10T05:15:08;2.00;;;1.60;;
2728;SDS011;1372;47.956;7.830;2023-05-10T05:17:37;1.07;;;1.03;;
2728;SDS011;1372;47.956;7.830;2023-05-10T05:20:07;1.63;;;1.53;;
2728;SDS011;1372;47.956;7.830;2023-05-10T05:22:39;1.30;;;1.20;;
2728;SDS011;1372;47.956;7.830;2023-05-10T05:25:10;1.23;;;1.10;;
2728;SDS011;1372;47.956;7.830;2023-05-10T05:27:39;2.03;;;1.67;;
2728;SDS011;1372;47.956;7.830;2023-05-10T05:30:10;2.10;;;1.50;;
2728;SDS011;1372;47.956;7.830;2023-05-10T05:32:39;1.60;;;1.50;;
2728;SDS011;1372;47.956;7.830;2023-05-10T05:35:08;1.57;;;1.47;;
2728;SDS011;1372;47.956;7.830;2023-05-10T05:37:37;2.57;;;2.43;;
2728;SDS011;1372;47.956;7.830;2023-05-10T05:40:07;1.73;;;1.63;;
2728;SDS011;1372;47.956;7.830;2023-05-10T05:42:40;2.53;;;2.33;;
2728;SDS011;1372;47.956;7.830;2023-05-10T05:45:10;2.10;;;2.00;;
2728;SDS011;1372;47.956;7.830;2023-05-10T05:47:40;2.23;;;2.03;;
2728;SDS011;1372;47.956;7.830;2023-05-10T05:50:09;1.80;;;1.70;;
2728;SDS011;1372;47.956;7.830;2023-05-10T05:52:39;2.17;;;1.97;;
2728;SDS011;1372;47.956;7.830;2023-05-10T05:55:10;1.80;;;1.70;;
2728;SDS011;1372;47.956;7.830;2023-05-10T05:57:39;1.53;;;1.43;;
2728;SDS011;1372;47.956;7.830;2023-05-10T06:00:10;1.80;;;1.60;;
2728;SDS011;1372;47.956;7.830;2023-05-10T06:02:40;1.10;;;1.00;;
2728;SDS011;1372;47.956;7.830;2023-05-10T06:05:09;1.40;;;1.30;;
2728;SDS011;1372;47.956;7.830;2023-05-10T06:07:38;1.90;;;1.80;;
2728;SDS011;1372;47.956;7.830;2023-05-10T06:10:11;1.27;;;1.00;;
2728;SDS011;1372;47.956;7.830;2023-05-10T06:12:42;1.93;;;1.30;;
2728;SDS011;1372;47.956;7.830;2023-05-10T06:15:13;1.77;;;1.60;;
2728;SDS011;1372;47.956;7.830;2023-05-10T06:17:42;1.07;;;1.00;;
2728;SDS011;1372;47.956;7.830;2023-05-10T06:20:14;1.40;;;1.30;;
2728;SDS011;1372;47.956;7.830;2023-05-10T06:22:46;3.20;;;1.30;;
2728;SDS011;1372;47.956;7.830;2023-05-10T06:25:15;1.57;;;1.00;;
2728;SDS011;1372;47.956;7.830;2023-05-10T06:27:45;1.60;;;1.50;;
2728;SDS011;1372;47.956;7.830;2023-05-10T06:30:20;1.47;;;1.20;;
2728;SDS011;1372;47.956;7.830;2023-05-10T06:32:49;1.50;;;1.40;;
2728;SDS011;1372;47.956;7.830;2023-05-10T06:35:19;1.50;;;1.23;;
2728;SDS011;1372;47.956;7.830;2023-05-10T06:37:48;1.67;;;1.43;;
2728;SDS011;1372;47.956;7.830;2023-05-10T06:40:16;1.47;;;1.30;;
2728;SDS011;1372;47.956;7.830;2023-05-10T06:42:46;1.87;;;1.67;;
2728;SDS011;1372;47.956;7.830;2023-05-10T06:45:15;2.10;;;1.70;;
2728;SDS011;1372;47.956;7.830;2023-05-10T06:47:49;2.77;;;1.60;;
2728;SDS011;1372;47.956;7.830;2023-05-10T06:50:17;1.20;;;1.10;;
2728;SDS011;1372;47.956;7.830;2023-05-10T06:52:46;1.70;;;1.60;;
2728;SDS011;1372;47.956;7.830;2023-05-10T06:55:17;1.80;;;1.27;;
2728;SDS011;1372;47.956;7.830;2023-05-10T06:57:46;2.83;;;2.03;;
2728;SDS011;1372;47.956;7.830;2023-05-10T07:00:16;2.60;;;2.40;;
2728;SDS011;1372;47.956;7.830;2023-05-10T07:02:50;2.70;;;2.50;;
2728;SDS011;1372;47.956;7.830;2023-05-10T07:05:19;2.43;;;2.17;;
2728;SDS011;1372;47.956;7.830;2023-05-10T07:07:48;1.30;;;1.20;;
2728;SDS011;1372;47.956;7.830;2023-05-10T07:10:18;1.50;;;1.40;;
2728;SDS011;1372;47.956;7.830;2023-05-10T07:12:47;1.53;;;1.43;;
2728;SDS011;1372;47.956;7.830;2023-05-10T07:15:16;2.30;;;2.20;;
2728;SDS011;1372;47.956;7.830;2023-05-10T07:17:45;2.07;;;1.90;;
2728;SDS011;1372;47.956;7.830;2023-05-10T07:20:18;3.30;;;2.33;;
2728;SDS011;1372;47.956;7.830;2023-05-10T07:22:47;4.00;;;3.27;;
2728;SDS011;1372;47.956;7.830;2023-05-10T07:25:16;1.70;;;1.60;;
2728;SDS011;1372;47.956;7.830;2023-05-10T07:27:45;4.93;;;2.40;;
2728;SDS011;1372;47.956;7.830;2023-05-10T07:30:15;4.00;;;2.40;;
2728;SDS011;1372;47.956;7.830;2023-05-10T07:32:44;2.03;;;1.83;;
2728;SDS011;1372;47.956;7.830;2023-05-10T07:35:13;2.37;;;2.10;;
2728;SDS011;1372;47.956;7.830;2023-05-10T07:37:43;4.10;;;1.60;;
2728;SDS011;1372;47.956;7.830;2023-05-10T07:40:12;2.43;;;1.90;;
2728;SDS011;1372;47.956;7.830;2023-05-10T07:42:41;2.57;;;2.27;;
2728;SDS011;1372;47.956;7.830;2023-05-10T07:45:10;1.70;;;1.60;;
2728;SDS011;1372;47.956;7.830;2023-05-10T07:47:39;2.40;;;2.20;;
2728;SDS011;1372;47.956;7.830;2023-05-10T07:50:08;2.10;;;1.90;;
2728;SDS011;1372;47.956;7.830;2023-05-10T07:52:37;2.20;;;1.90;;
2728;SDS011;1372;47.956;7.830;2023-05-10T07:55:08;2.53;;;1.80;;
2728;SDS011;1372;47.956;7.830;2023-05-10T07:57:38;1.77;;;1.67;;
2728;SDS011;1372;47.956;7.830;2023-05-10T08:00:07;1.80;;;1.70;;
2728;SDS011;1372;47.956;7.830;2023-05-10T08:02:37;3.30;;;1.67;;
2728;SDS011;1372;47.956;7.830;2023-05-10T08:05:09;2.00;;;1.63;;
2728;SDS011;1372;47.956;7.830;2023-05-10T08:07:40;1.63;;;1.27;;
2728;SDS011;1372;47.956;7.830;2023-05-10T08:10:10;1.73;;;1.63;;
2728;SDS011;1372;47.956;7.830;2023-05-10T08:12:39;1.40;;;1.30;;
2728;SDS011;1372;47.956;7.830;2023-05-10T08:15:10;2.17;;;1.70;;
2728;SDS011;1372;47.956;7.830;2023-05-10T08:17:39;1.73;;;1.40;;
2728;SDS011;1372;47.956;7.830;2023-05-10T08:20:09;2.90;;;1.30;;
2728;SDS011;1372;47.956;7.830;2023-05-10T08:22:39;1.70;;;1.47;;
2728;SDS011;1372;47.956;7.830;2023-05-10T08:25:08;1.73;;;1.53;;
2728;SDS011;1372;47.956;7.830;2023-05-10T08:27:38;1.07;;;1.07;;
2728;SDS011;1372;47.956;7.830;2023-05-10T08:30:07;2.50;;;1.20;;
2728;SDS011;1372;47.956;7.830;2023-05-10T08:32:37;1.80;;;1.10;;
2728;SDS011;1372;47.956;7.830;2023-05-10T08:35:06;1.33;;;1.23;;
2728;SDS011;1372;47.956;7.830;2023-05-10T08:37:35;1.70;;;1.13;;
2728;SDS011;1372;47.956;7.830;2023-05-10T08:40:05;1.73;;;1.63;;
2728;SDS011;1372;47.956;7.830;2023-05-10T08:42:39;1.17;;;1.07;;
2728;SDS011;1372;47.956;7.830;2023-05-10T08:45:12;1.53;;;1.43;;
2728;SDS011;1372;47.956;7.830;2023-05-10T08:47:46;5.43;;;2.10;;
2728;SDS011;1372;47.956;7.830;2023-05-10T08:50:15;1.60;;;1.37;;
2728;SDS011;1372;47.956;7.830;2023-05-10T08:52:48;1.40;;;1.30;;
2728;SDS011;1372;47.956;7.830;2023-05-10T08:55:21;1.63;;;1.53;;
2728;SDS011;1372;47.956;7.830;2023-05-10T08:57:52;1.47;;;1.37;;
2728;SDS011;1372;47.956;7.830;2023-05-10T09:00:21;1.53;;;1.43;;
2728;SDS011;1372;47.956;7.830;2023-05-10T09:02:50;3.33;;;1.40;;
2728;SDS011;1372;47.956;7.830;2023-05-10T09:05:19;4.70;;;1.63;;
2728;SDS011;1372;47.956;7.830;2023-05-10T09:07:48;2.70;;;1.50;;
2728;SDS011;1372;47.956;7.830;2023-05-10T09:10:18;1.53;;;1.23;;
2728;SDS011;1372;47.956;7.830;2023-05-10T09:12:48;1.93;;;1.33;;
2728;SDS011;1372;47.956;7.830;2023-05-10T09:15:20;1.83;;;1.30;;
2728;SDS011;1372;47.956;7.830;2023-05-10T09:17:49;1.97;;;1.20;;
2728;SDS011;1372;47.956;7.830;2023-05-10T09:20:20;1.37;;;1.27;;
2728;SDS011;1372;47.956;7.830;2023-05-10T09:22:49;1.20;;;1.13;;
2728;SDS011;1372;47.956;7.830;2023-05-10T09:25:18;1.40;;;1.30;;
2728;SDS011;1372;47.956;7.830;2023-05-10T09:27:48;1.70;;;1.40;;
2728;SDS011;1372;47.956;7.830;2023-05-10T09:30:18;1.40;;;1.30;;
2728;SDS011;1372;47.956;7.830;2023-05-10T09:32:54;3.30;;;1.10;;
2728;SDS011;1372;47.956;7.830;2023-05-10T09:35:27;1.40;;;1.20;;
2728;SDS011;1372;47.956;7.830;2023-05-10T09:38:00;0.90;;;0.80;;
2728;SDS011;1372;47.956;7.830;2023-05-10T09:40:31;3.37;;;0.90;;
2728;SDS011;1372;47.956;7.830;2023-05-10T09:43:00;1.30;;;0.90;;
2728;SDS011;1372;47.956;7.830;2023-05-10T09:45:32;1.23;;;1.13;;
2728;SDS011;1372;47.956;7.830;2023-05-10T09:48:04;0.80;;;0.80;;
2728;SDS011;1372;47.956;7.830;2023-05-10T09:50:34;0.80;;;0.80;;
2728;SDS011;1372;47.956;7.830;2023-05-10T09:53:03;0.80;;;0.80;;
2728;SDS011;1372;47.956;7.830;2023-05-10T09:55:39;1.93;;;0.80;;
2728;SDS011;1372;47.956;7.830;2023-05-10T09:58:11;0.97;;;0.80;;
2728;SDS011;1372;47.956;7.830;2023-05-10T10:00:43;2.90;;;1.50;;
2728;SDS011;1372;47.956;7.830;2023-05-10T10:03:14;0.87;;;0.87;;
2728;SDS011;1372;47.956;7.830;2023-05-10T10:05:46;2.00;;;0.90;;
2728;SDS011;1372;47.956;7.830;2023-05-10T10:08:16;2.57;;;0.90;;
2728;SDS011;1372;47.956;7.830;2023-05-10T10:10:47;1.13;;;0.87;;
2728;SDS011;1372;47.956;7.830;2023-05-10T10:13:17;1.00;;;0.70;;
2728;SDS011;1372;47.956;7.830;2023-05-10T10:15:47;1.13;;;0.77;;
2728;SDS011;1372;47.956;7.830;2023-05-10T10:18:18;0.90;;;0.70;;
2728;SDS011;1372;47.956;7.830;2023-05-10T10:20:51;0.93;;;0.90;;
2728;SDS011;1372;47.956;7.830;2023-05-10T10:23:21;1.77;;;1.07;;
2728;SDS011;1372;47.956;7.830;2023-05-10T10:25:50;1.13;;;1.03;;
2728;SDS011;1372;47.956;7.830;2023-05-10T10:28:23;0.73;;;0.63;;
2728;SDS011;1372;47.956;7.830;2023-05-10T10:31:02;1.13;;;1.03;;
2728;SDS011;1372;47.956;7.830;2023-05-10T10:33:55;0.80;;;0.80;;
2728;SDS011;1372;47.956;7.830;2023-05-10T10:36:28;2.97;;;0.80;;
2728;SDS011;1372;47.956;7.830;2023-05-10T10:39:00;0.80;;;0.80;;
2728;SDS011;1372;47.956;7.830;2023-05-10T10:41:31;1.67;;;0.80;;
2728;SDS011;1372;47.956;7.830;2023-05-10T10:44:22;1.03;;;1.00;;
2728;SDS011;1372;47.956;7.830;2023-05-10T10:47:11;1.77;;;0.87;;
2728;SDS011;1372;47.956;7.830;2023-05-10T10:49:52;1.73;;;0.77;;
2728;SDS011;1372;47.956;7.830;2023-05-10T10:52:32;0.80;;;0.73;;
2728;SDS011;1372;47.956;7.830;2023-05-10T10:55:03;0.90;;;0.80;;
2728;SDS011;1372;47.956;7.830;2023-05-10T10:57:45;1.70;;;0.70;;
2728;SDS011;1372;47.956;7.830;2023-05-10T11:00:19;0.80;;;0.80;;
2728;SDS011;1372;47.956;7.830;2023-05-10T11:03:03;1.90;;;0.97;;
2728;SDS011;1372;47.956;7.830;2023-05-10T11:05:35;0.87;;;0.80;;
2728;SDS011;1372;47.956;7.830;2023-05-10T11:08:18;1.60;;;0.97;;
2728;SDS011;1372;47.956;7.830;2023-05-10T11:11:04;3.10;;;0.70;;
2728;SDS011;1372;47.956;7.830;2023-05-10T11:13:37;1.63;;;0.80;;
2728;SDS011;1372;47.956;7.830;2023-05-10T11:16:17;0.83;;;0.83;;
2728;SDS011;1372;47.956;7.830;2023-05-10T11:18:59;1.33;;;0.87;;
2728;SDS011;1372;47.956;7.830;2023-05-10T11:21:31;1.10;;;1.00;;
2728;SDS011;1372;47.956;7.830;2023-05-10T11:24:01;2.60;;;1.03;;
2728;SDS011;1372;47.956;7.830;2023-05-10T11:26:41;3.60;;;1.37;;
2728;SDS011;1372;47.956;7.830;2023-05-10T11:29:12;0.83;;;0.83;;
2728;SDS011;1372;47.956;7.830;2023-05-10T11:31:42;2.50;;;1.10;;
2728;SDS011;1372;47.956;7.830;2023-05-10T11:34:23;3.53;;;1.40;;
2728;SDS011;1372;47.956;7.830;2023-05-10T11:36:54;4.00;;;1.07;;
2728;SDS011;1372;47.956;7.830;2023-05-10T11:39:25;2.33;;;0.90;;
2728;SDS011;1372;47.956;7.830;2023-05-10T11:41:55;2.87;;;1.20;;
2728;SDS011;1372;47.956;7.830;2023-05-10T11:44:28;1.10;;;1.00;;
2728;SDS011;1372;47.956;7.830;2023-05-10T11:46:58;1.20;;;1.10;;
2728;SDS011;1372;47.956;7.830;2023-05-10T11:49:29;2.83;;;1.20;;
2728;SDS011;1372;47.956;7.830;2023-05-10T11:52:03;2.10;;;1.03;;
2728;SDS011;1372;47.956;7.830;2023-05-10T11:54:33;5.30;;;1.10;;
2728;SDS011;1372;47.956;7.830;2023-05-10T11:57:05;2.13;;;1.03;;
2728;SDS011;1372;47.956;7.830;2023-05-10T11:59:33;0.87;;;0.83;;
2728;SDS011;1372;47.956;7.830;2023-05-10T12:02:02;2.60;;;1.03;;
2728;SDS011;1372;47.956;7.830;2023-05-10T12:04:33;1.43;;;0.70;;
2728;SDS011;1372;47.956;7.830;2023-05-10T12:07:02;1.17;;;0.80;;
2728;SDS011;1372;47.956;7.830;2023-05-10T12:09:31;3.10;;;1.00;;
2728;SDS011;1372;47.956;7.830;2023-05-10T12:12:10;0.80;;;0.77;;
2728;SDS011;1372;47.956;7.830;2023-05-10T12:14:43;0.40;;;0.37;;
2728;SDS011;1372;47.956;7.830;2023-05-10T12:17:17;0.70;;;0.50;;
2728;SDS011;1372;47.956;7.830;2023-05-10T12:19:47;0.63;;;0.50;;
2728;SDS011;1372;47.956;7.830;2023-05-10T12:22:18;0.60;;;0.50;;
2728;SDS011;1372;47.956;7.830;2023-05-10T12:24:49;0.97;;;0.83;;
2728;SDS011;1372;47.956;7.830;2023-05-10T12:27:18;0.80;;;0.80;;
2728;SDS011;1372;47.956;7.830;2023-05-10T12:29:50;1.50;;;0.70;;
2728;SDS011;1372;47.956;7.830;2023-05-10T12:32:21;2.20;;;0.73;;
2728;SDS011;1372;47.956;7.830;2023-05-10T12:35:07;1.23;;;0.70;;
2728;SDS011;1372;47.956;7.830;2023-05-10T12:37:37;0.70;;;0.70;;
2728;SDS011;1372;47.956;7.830;2023-05-10T12:40:06;5.37;;;1.07;;
2728;SDS011;1372;47.956;7.830;2023-05-10T12:42:37;1.23;;;0.80;;
2728;SDS011;1372;47.956;7.830;2023-05-10T12:45:08;2.20;;;0.70;;
2728;SDS011;1372;47.956;7.830;2023-05-10T12:47:37;0.90;;;0.70;;
2728;SDS011;1372;47.956;7.830;2023-05-10T12:50:10;2.53;;;0.60;;
2728;SDS011;1372;47.956;7.830;2023-05-10T12:52:39;3.83;;;0.73;;
2728;SDS011;1372;47.956;7.830;2023-05-10T12:55:08;2.33;;;0.90;;
2728;SDS011;1372;47.956;7.830;2023-05-10T12:57:39;2.07;;;1.37;;
2728;SDS011;1372;47.956;7.830;2023-05-10T13:00:08;1.20;;;0.47;;
2728;SDS011;1372;47.956;7.830;2023-05-10T13:02:37;0.43;;;0.43;;
2728;SDS011;1372;47.956;7.830;2023-05-10T13:05:06;0.87;;;0.60;;
2728;SDS011;1372;47.956;7.830;2023-05-10T13:07:37;0.93;;;0.80;;
2728;SDS011;1372;47.956;7.830;2023-05-10T13:10:06;0.70;;;0.60;;
2728;SDS011;1372;47.956;7.830;2023-05-10T13:12:35;0.77;;;0.50;;
2728;SDS011;1372;47.956;7.830;2023-05-10T13:15:07;0.60;;;0.60;;
2728;SDS011;1372;47.956;7.830;2023-05-10T13:17:36;0.77;;;0.57;;
2728;SDS011;1372;47.956;7.830;2023-05-10T13:20:07;0.70;;;0.50;;
2728;SDS011;1372;47.956;7.830;2023-05-10T13:22:38;0.93;;;0.60;;
2728;SDS011;1372;47.956;7.830;2023-05-10T13:25:08;0.83;;;0.67;;
2728;SDS011;1372;47.956;7.830;2023-05-10T13:27:37;2.10;;;1.40;;
2728;SDS011;1372;47.956;7.830;2023-05-10T13:30:07;4.27;;;0.90;;
2728;SDS011;1372;47.956;7.830;2023-05-10T13:32:40;0.70;;;0.60;;
2728;SDS011;1372;47.956;7.830;2023-05-10T13:35:09;0.80;;;0.80;;
2728;SDS011;1372;47.956;7.830;2023-05-10T13:37:39;1.30;;;0.60;;
2728;SDS011;1372;47.956;7.830;2023-05-10T13:40:08;0.50;;;0.50;;
2728;SDS011;1372;47.956;7.830;2023-05-10T13:42:37;0.60;;;0.50;;
2728;SDS011;1372;47.956;7.830;2023-05-10T13:45:06;1.17;;;0.60;;
2728;SDS011;1372;47.956;7.830;2023-05-10T13:47:36;0.60;;;0.57;;
2728;SDS011;1372;47.956;7.830;2023-05-10T13:50:07;1.27;;;0.60;;
2728;SDS011;1372;47.956;7.830;2023-05-10T13:52:36;0.87;;;0.70;;
2728;SDS011;1372;47.956;7.830;2023-05-10T13:55:07;1.93;;;0.50;;
2728;SDS011;1372;47.956;7.830;2023-05-10T13:57:39;1.10;;;0.60;;
2728;SDS011;1372;47.956;7.830;2023-05-10T14:00:08;1.23;;;0.70;;
2728;SDS011;1372;47.956;7.830;2023-05-10T14:02:37;0.57;;;0.40;;
2728;SDS011;1372;47.956;7.830;2023-05-10T14:05:07;0.73;;;0.73;;
2728;SDS011;1372;47.956;7.830;2023-05-10T14:07:36;0.60;;;0.60;;
2728;SDS011;1372;47.956;7.830;2023-05-10T14:10:07;1.80;;;0.50;;
2728;SDS011;1372;47.956;7.830;2023-05-10T14:12:37;0.50;;;0.40;;
2728;SDS011;1372;47.956;7.830;2023-05-10T14:15:06;0.60;;;0.57;;
2728;SDS011;1372;47.956;7.830;2023-05-10T14:17:40;0.60;;;0.60;;
2728;SDS011;1372;47.956;7.830;2023-05-10T14:20:10;2.43;;;0.50;;
2728;SDS011;1372;47.956;7.830;2023-05-10T14:22:40;1.10;;;0.57;;
2728;SDS011;1372;47.956;7.830;2023-05-10T14:25:09;0.60;;;0.50;;
2728;SDS011;1372;47.956;7.830;2023-05-10T14:27:38;0.70;;;0.60;;
2728;SDS011;1372;47.956;7.830;2023-05-10T14:30:08;1.03;;;0.50;;
2728;SDS011;1372;47.956;7.830;2023-05-10T14:32:38;0.50;;;0.50;;
2728;SDS011;1372;47.956;7.830;2023-05-10T14:35:06;0.70;;;0.70;;
2728;SDS011;1372;47.956;7.830;2023-05-10T14:37:38;0.57;;;0.50;;
2728;SDS011;1372;47.956;7.830;2023-05-10T14:40:10;0.57;;;0.57;;
2728;SDS011;1372;47.956;7.830;2023-05-10T14:42:41;0.70;;;0.70;;
2728;SDS011;1372;47.956;7.830;2023-05-10T14:45:10;0.33;;;0.33;;
2728;SDS011;1372;47.956;7.830;2023-05-10T14:47:48;0.40;;;0.40;;
2728;SDS011;1372;47.956;7.830;2023-05-10T14:50:17;1.27;;;0.70;;
2728;SDS011;1372;47.956;7.830;2023-05-10T14:53:02;0.50;;;0.50;;
2728;SDS011;1372;47.956;7.830;2023-05-10T14:55:32;1.43;;;0.60;;
2728;SDS011;1372;47.956;7.830;2023-05-10T14:58:01;0.60;;;0.60;;
2728;SDS011;1372;47.956;7.830;2023-05-10T15:00:30;0.70;;;0.60;;
2728;SDS011;1372;47.956;7.830;2023-05-10T15:03:02;2.30;;;1.57;;
2728;SDS011;1372;47.956;7.830;2023-05-10T15:05:31;1.83;;;0.80;;
2728;SDS011;1372;47.956;7.830;2023-05-10T15:08:00;0.50;;;0.50;;
2728;SDS011;1372;47.956;7.830;2023-05-10T15:10:30;1.60;;;0.87;;
2728;SDS011;1372;47.956;7.830;2023-05-10T15:13:00;1.40;;;0.87;;
2728;SDS011;1372;47.956;7.830;2023-05-10T15:15:30;1.20;;;0.80;;
2728;SDS011;1372;47.956;7.830;2023-05-10T15:17:59;0.87;;;0.50;;
2728;SDS011;1372;47.956;7.830;2023-05-10T15:20:28;0.50;;;0.50;;
2728;SDS011;1372;47.956;7.830;2023-05-10T15:22:56;1.50;;;0.70;;
2728;SDS011;1372;47.956;7.830;2023-05-10T15:25:28;1.37;;;0.80;;
2728;SDS011;1372;47.956;7.830;2023-05-10T15:28:00;1.90;;;0.50;;
2728;SDS011;1372;47.956;7.830;2023-05-10T15:30:35;0.70;;;0.60;;
2728;SDS011;1372;47.956;7.830;2023-05-10T15:33:04;0.73;;;0.70;;
2728;SDS011;1372;47.956;7.830;2023-05-10T15:35:38;0.60;;;0.60;;
2728;SDS011;1372;47.956;7.830;2023-05-10T15:38:08;0.90;;;0.80;;
2728;SDS011;1372;47.956;7.830;2023-05-10T15:40:38;0.93;;;0.60;;